createdAt,value
2022-11-17T00:00:45.017Z,100.00
2022-11-17T00:03:16.016Z,100.00
2022-11-17T00:05:46.173Z,100.00
2022-11-17T00:08:14.636Z,100.00
2022-11-17T00:10:42.884Z,100.00
2022-11-17T00:13:37.714Z,100.00
2022-11-17T00:16:06.885Z,100.00
2022-11-17T00:18:57.933Z,100.00
2022-11-17T00:21:28.928Z,100.00
2022-11-17T00:23:57.932Z,100.00
2022-11-17T00:26:28.190Z,100.00
2022-11-17T00:28:58.989Z,100.00
2022-11-17T00:31:47.115Z,100.00
2022-11-17T00:34:18.108Z,100.00
2022-11-17T00:36:49.720Z,100.00
2022-11-17T00:39:20.190Z,100.00
2022-11-17T00:41:48.452Z,100.00
2022-11-17T00:44:17.430Z,100.00
2022-11-17T00:46:46.094Z,100.00
2022-11-17T00:49:14.994Z,100.00
2022-11-17T00:51:43.934Z,100.00
2022-11-17T00:54:15.457Z,100.00
2022-11-17T00:56:43.780Z,100.00
2022-11-17T00:59:12.337Z,100.00
2022-11-17T01:01:41.622Z,100.00
2022-11-17T01:04:10.322Z,100.00
2022-11-17T01:06:41.629Z,100.00
2022-11-17T01:09:15.525Z,100.00
2022-11-17T01:11:44.286Z,100.00
2022-11-17T01:14:16.401Z,100.00
2022-11-17T01:16:45.808Z,100.00
2022-11-17T01:19:15.932Z,100.00
2022-11-17T01:21:44.958Z,100.00
2022-11-17T01:24:17.292Z,100.00
2022-11-17T01:26:47.146Z,100.00
2022-11-17T01:29:18.040Z,100.00
2022-11-17T01:31:51.048Z,100.00
2022-11-17T01:34:19.850Z,100.00
2022-11-17T01:37:05.500Z,100.00
2022-11-17T01:39:35.220Z,100.00
2022-11-17T01:42:05.850Z,100.00
2022-11-17T01:45:02.961Z,100.00
2022-11-17T01:47:43.946Z,100.00
2022-11-17T01:50:26.495Z,100.00
2022-11-17T01:52:59.536Z,100.00
2022-11-17T01:55:36.951Z,100.00
2022-11-17T01:58:10.153Z,100.00
2022-11-17T02:00:38.659Z,100.00
2022-11-17T02:03:07.149Z,100.00
2022-11-17T02:05:44.675Z,100.00
2022-11-17T02:08:13.313Z,100.00
2022-11-17T02:10:48.604Z,100.00
2022-11-17T02:13:20.459Z,100.00
2022-11-17T02:15:49.070Z,100.00
2022-11-17T02:18:18.380Z,100.00
2022-11-17T02:21:09.050Z,100.00
2022-11-17T02:24:13.944Z,100.00
2022-11-17T02:27:40.001Z,100.00
2022-11-17T02:30:11.938Z,100.00
2022-11-17T02:32:50.835Z,100.00
2022-11-17T02:35:26.970Z,100.00
2022-11-17T02:38:09.766Z,100.00
2022-11-17T02:40:44.961Z,100.00
2022-11-17T02:43:35.937Z,100.00
2022-11-17T02:46:08.275Z,100.00
2022-11-17T02:48:40.191Z,100.00
2022-11-17T02:51:16.996Z,100.00
2022-11-17T02:53:45.264Z,100.00
2022-11-17T02:56:13.448Z,100.00
2022-11-17T02:58:43.065Z,100.00
2022-11-17T03:01:39.008Z,100.00
2022-11-17T03:04:30.092Z,100.00
2022-11-17T03:07:15.056Z,100.00
2022-11-17T03:09:51.277Z,100.00
2022-11-17T03:12:26.072Z,100.00
2022-11-17T03:15:03.342Z,100.00
2022-11-17T03:17:38.913Z,100.00
2022-11-17T03:20:14.929Z,100.00
2022-11-17T03:22:51.505Z,100.00
2022-11-17T03:25:23.143Z,100.00
2022-11-17T03:27:57.065Z,100.00
2022-11-17T03:30:27.030Z,100.00
2022-11-17T03:33:05.159Z,100.00
2022-11-17T03:35:37.721Z,100.00
2022-11-17T03:38:11.741Z,100.00
2022-11-17T03:40:44.035Z,100.00
2022-11-17T03:43:15.142Z,100.00
2022-11-17T03:45:50.253Z,100.00
2022-11-17T03:48:24.050Z,100.00
2022-11-17T03:50:58.211Z,100.00
2022-11-17T03:53:26.562Z,100.00
2022-11-17T03:56:03.138Z,100.00
2022-11-17T03:58:36.109Z,100.00
2022-11-17T04:01:09.151Z,100.00
2022-11-17T04:03:38.241Z,100.00
2022-11-17T04:06:07.279Z,100.00
2022-11-17T04:08:35.570Z,100.00
2022-11-17T04:11:21.329Z,100.00
2022-11-17T04:14:07.289Z,100.00
2022-11-17T04:16:36.872Z,100.00
2022-11-17T04:19:05.102Z,100.00
2022-11-17T04:21:33.417Z,100.00
2022-11-17T04:24:01.735Z,100.00
2022-11-17T04:26:47.606Z,100.00
2022-11-17T04:29:16.041Z,100.00
2022-11-17T04:31:45.600Z,100.00
2022-11-17T04:34:13.864Z,100.00
2022-11-17T04:36:46.454Z,100.00
2022-11-17T04:39:16.624Z,100.00
2022-11-17T04:42:03.314Z,100.00
2022-11-17T04:44:33.213Z,100.00
2022-11-17T04:47:03.624Z,100.00
2022-11-17T04:49:33.726Z,100.00
2022-11-17T04:52:02.480Z,100.00
2022-11-17T04:54:30.767Z,100.00
2022-11-17T04:56:59.009Z,100.00
2022-11-17T04:59:27.205Z,100.00
2022-11-17T05:01:55.485Z,100.00
2022-11-17T05:04:41.747Z,100.00
2022-11-17T05:07:10.592Z,100.00
2022-11-17T05:09:38.883Z,100.00
2022-11-17T05:12:25.220Z,100.00
2022-11-17T05:14:53.502Z,100.00
2022-11-17T05:17:20.730Z,100.00
2022-11-17T05:19:50.344Z,100.00
2022-11-17T05:22:38.885Z,100.00
2022-11-17T05:25:08.788Z,100.00
2022-11-17T05:27:37.734Z,100.00
2022-11-17T05:30:09.661Z,100.00
2022-11-17T05:32:37.893Z,100.00
2022-11-17T05:35:08.957Z,100.00
2022-11-17T05:37:37.159Z,100.00
2022-11-17T05:40:06.534Z,100.00
2022-11-17T05:42:35.909Z,100.00
2022-11-17T05:45:04.263Z,100.00
2022-11-17T05:47:32.490Z,100.00
2022-11-17T05:50:00.699Z,100.00
2022-11-17T05:52:30.322Z,100.00
2022-11-17T05:54:58.516Z,100.00
2022-11-17T05:57:32.059Z,100.00
2022-11-17T06:00:04.991Z,100.00
2022-11-17T06:02:47.073Z,100.00
2022-11-17T06:05:20.014Z,100.00
2022-11-17T06:07:50.283Z,100.00
2022-11-17T06:10:18.971Z,100.00
2022-11-17T06:12:47.441Z,100.00
2022-11-17T06:15:15.901Z,100.00
2022-11-17T06:17:50.763Z,100.00
2022-11-17T06:20:23.061Z,100.00
2022-11-17T06:22:53.008Z,100.00
2022-11-17T06:25:21.978Z,100.00
2022-11-17T06:27:52.229Z,100.00
2022-11-17T06:30:21.282Z,100.00
2022-11-17T06:32:51.160Z,100.00
2022-11-17T06:35:19.485Z,100.00
2022-11-17T06:37:47.689Z,100.00
2022-11-17T06:40:18.708Z,100.00
2022-11-17T06:43:00.859Z,100.00
2022-11-17T06:45:29.085Z,100.00
2022-11-17T06:47:57.252Z,100.00
2022-11-17T06:50:25.466Z,100.00
2022-11-17T06:52:57.690Z,100.00
2022-11-17T06:55:27.999Z,100.00
2022-11-17T06:58:01.260Z,100.00
2022-11-17T07:00:30.787Z,100.00
2022-11-17T07:03:03.544Z,100.00
2022-11-17T07:05:33.027Z,100.00
2022-11-17T07:08:02.979Z,100.00
2022-11-17T07:10:33.720Z,100.00
2022-11-17T07:13:01.988Z,100.00
2022-11-17T07:15:30.675Z,100.00
2022-11-17T07:17:59.525Z,100.00
2022-11-17T07:20:27.948Z,100.00
2022-11-17T07:23:00.921Z,100.00
2022-11-17T07:25:29.142Z,100.00
2022-11-17T07:28:02.262Z,100.00
2022-11-17T07:30:30.874Z,100.00
2022-11-17T07:33:00.308Z,100.00
2022-11-17T07:35:29.123Z,100.00
2022-11-17T07:38:01.327Z,100.00
2022-11-17T07:40:30.124Z,100.00
2022-11-17T07:42:58.727Z,100.00
2022-11-17T07:45:31.896Z,100.00
2022-11-17T07:48:04.546Z,100.00
2022-11-17T07:50:33.560Z,100.00
2022-11-17T07:53:01.899Z,100.00
2022-11-17T07:55:30.292Z,100.00
2022-11-17T07:58:00.344Z,100.00
2022-11-17T08:00:33.620Z,100.00
2022-11-17T08:03:03.655Z,100.00
2022-11-17T08:05:32.309Z,100.00
2022-11-17T08:08:01.499Z,100.00
2022-11-17T08:10:31.383Z,100.00
2022-11-17T08:13:00.962Z,100.00
2022-11-17T08:15:31.653Z,100.00
2022-11-17T08:18:01.335Z,100.00
2022-11-17T08:20:30.915Z,100.00
2022-11-17T08:22:59.657Z,100.00
2022-11-17T08:25:28.737Z,100.00
2022-11-17T08:27:57.931Z,100.00
2022-11-17T08:30:28.614Z,100.00
2022-11-17T08:32:58.289Z,100.00
2022-11-17T08:35:30.680Z,100.00
2022-11-17T08:38:01.437Z,100.00
2022-11-17T08:40:29.664Z,100.00
2022-11-17T08:43:01.208Z,100.00
2022-11-17T08:45:30.464Z,100.00
2022-11-17T08:48:00.255Z,100.00
2022-11-17T08:50:29.073Z,100.00
2022-11-17T08:52:57.444Z,100.00
2022-11-17T08:55:27.212Z,100.00
2022-11-17T08:57:55.560Z,100.00
2022-11-17T09:00:24.405Z,100.00
2022-11-17T09:02:52.654Z,100.00
2022-11-17T09:05:22.241Z,100.00
2022-11-17T09:07:50.755Z,100.00
2022-11-17T09:10:19.499Z,100.00
2022-11-17T09:12:47.830Z,100.00
2022-11-17T09:15:16.440Z,100.00
2022-11-17T09:17:47.742Z,100.00
2022-11-17T09:20:16.983Z,100.00
2022-11-17T09:22:46.918Z,100.00
2022-11-17T09:25:16.898Z,100.00
2022-11-17T09:27:45.156Z,100.00
2022-11-17T09:30:14.388Z,100.00
2022-11-17T09:32:42.735Z,100.00
2022-11-17T09:35:11.190Z,100.00
2022-11-17T09:37:39.451Z,100.00
2022-11-17T09:40:15.768Z,100.00
2022-11-17T09:42:44.762Z,100.00
2022-11-17T09:45:19.468Z,100.00
2022-11-17T09:48:06.988Z,100.00
2022-11-17T09:50:42.283Z,100.00
2022-11-17T09:53:16.872Z,100.00
2022-11-17T09:55:50.776Z,100.00
2022-11-17T09:58:31.188Z,100.00
2022-11-17T10:00:59.704Z,100.00
2022-11-17T10:03:30.549Z,100.00
2022-11-17T10:06:00.772Z,100.00
2022-11-17T10:08:38.075Z,100.00
2022-11-17T10:11:28.334Z,100.00
2022-11-17T10:13:56.603Z,100.00
2022-11-17T10:16:24.968Z,100.00
2022-11-17T10:18:53.364Z,100.00
2022-11-17T10:21:21.631Z,100.00
2022-11-17T10:23:58.214Z,100.00
2022-11-17T10:26:28.248Z,100.00
2022-11-17T10:29:08.983Z,100.00
2022-11-17T10:31:45.881Z,100.00
2022-11-17T10:34:37.015Z,100.00
2022-11-17T10:37:30.102Z,100.00
2022-11-17T10:40:23.624Z,100.00
2022-11-17T10:43:19.215Z,100.00
2022-11-17T10:45:48.722Z,100.00
2022-11-17T10:48:29.419Z,100.00
2022-11-17T10:50:59.875Z,100.00
2022-11-17T10:53:44.444Z,99.92
2022-11-17T10:56:17.080Z,99.80
2022-11-17T10:59:13.683Z,99.42
2022-11-17T11:01:44.571Z,100.00
2022-11-17T11:04:31.785Z,100.00
2022-11-17T11:07:15.197Z,100.00
2022-11-17T11:09:50.950Z,99.76
2022-11-17T11:12:26.014Z,99.48
2022-11-17T11:14:57.771Z,99.12
2022-11-17T11:17:29.838Z,99.03
2022-11-17T11:19:58.506Z,99.02
2022-11-17T11:22:38.110Z,99.16
2022-11-17T11:25:30.715Z,99.41
2022-11-17T11:28:22.076Z,99.21
2022-11-17T11:31:06.243Z,99.36
2022-11-17T11:33:39.601Z,99.54
2022-11-17T11:36:29.163Z,99.48
2022-11-17T11:39:02.840Z,99.77
2022-11-17T11:42:08.283Z,100.00
2022-11-17T11:45:02.430Z,100.00
2022-11-17T11:47:53.975Z,100.00
2022-11-17T11:50:26.255Z,100.00
2022-11-17T11:53:02.154Z,100.00
2022-11-17T11:55:35.383Z,100.00
2022-11-17T11:58:14.047Z,100.00
2022-11-17T12:00:44.157Z,100.00
2022-11-17T12:03:26.137Z,100.00
2022-11-17T12:06:28.920Z,100.00
2022-11-17T12:09:15.423Z,100.00
2022-11-17T12:12:02.689Z,100.00
2022-11-17T12:14:32.747Z,100.00
2022-11-17T12:17:23.371Z,100.00
2022-11-17T12:19:59.633Z,100.00
2022-11-17T12:23:00.840Z,100.00
2022-11-17T12:25:32.649Z,100.00
2022-11-17T12:28:29.524Z,100.00
2022-11-17T12:31:02.691Z,100.00
2022-11-17T12:34:22.791Z,100.00
2022-11-17T12:37:31.073Z,100.00
2022-11-17T12:40:02.695Z,100.00
2022-11-17T12:42:32.331Z,100.00
2022-11-17T12:45:12.300Z,100.00
2022-11-17T12:47:44.170Z,100.00
2022-11-17T12:50:42.008Z,100.00
2022-11-17T12:53:43.258Z,100.00
2022-11-17T12:56:48.463Z,100.00
2022-11-17T12:59:58.881Z,100.00
2022-11-17T13:03:02.818Z,100.00
2022-11-17T13:05:31.755Z,100.00
2022-11-17T13:08:23.872Z,100.00
2022-11-17T13:10:53.375Z,100.00
2022-11-17T13:13:25.276Z,100.00
2022-11-17T13:15:55.580Z,100.00
2022-11-17T13:18:34.029Z,100.00
2022-11-17T13:21:03.335Z,100.00
2022-11-17T13:23:34.583Z,100.00
2022-11-17T13:26:20.992Z,100.00
2022-11-17T13:28:50.842Z,100.00
2022-11-17T13:31:22.188Z,100.00
2022-11-17T13:34:03.631Z,100.00
2022-11-17T13:36:31.892Z,100.00
2022-11-17T13:39:02.827Z,100.00
2022-11-17T13:41:38.821Z,100.00
2022-11-17T13:44:14.164Z,100.00
2022-11-17T13:46:42.676Z,100.00
2022-11-17T13:49:34.289Z,100.00
2022-11-17T13:52:03.068Z,100.00
2022-11-17T13:54:33.646Z,100.00
2022-11-17T13:57:08.147Z,100.00
2022-11-17T13:59:39.729Z,100.00
2022-11-17T14:02:26.896Z,100.00
2022-11-17T14:05:23.872Z,100.00
2022-11-17T14:07:53.764Z,100.00
2022-11-17T14:10:33.123Z,100.00
2022-11-17T14:13:23.052Z,99.36
2022-11-17T14:15:58.599Z,99.42
2022-11-17T14:18:34.316Z,99.00
2022-11-17T14:21:20.509Z,98.66
2022-11-17T14:23:48.971Z,98.08
2022-11-17T14:26:24.592Z,98.20
2022-11-17T14:28:55.215Z,98.15
2022-11-17T14:31:23.519Z,98.42
2022-11-17T14:33:51.792Z,98.16
2022-11-17T14:36:20.260Z,97.50
2022-11-17T14:38:49.440Z,97.63
2022-11-17T14:41:19.092Z,97.09
2022-11-17T14:43:49.472Z,97.20
2022-11-17T14:46:24.273Z,96.57
2022-11-17T14:48:54.001Z,96.11
2022-11-17T14:51:23.343Z,95.22
2022-11-17T14:53:51.653Z,95.03
2022-11-17T14:56:22.408Z,95.06
2022-11-17T14:58:54.791Z,94.82
2022-11-17T15:01:28.353Z,94.77
2022-11-17T15:03:58.325Z,94.32
2022-11-17T15:06:26.888Z,93.79
2022-11-17T15:08:57.531Z,93.60
2022-11-17T15:11:27.880Z,93.15
2022-11-17T15:14:03.047Z,93.09
2022-11-17T15:16:31.392Z,93.22
2022-11-17T15:19:00.388Z,93.16
2022-11-17T15:21:28.701Z,93.07
2022-11-17T15:23:57.208Z,93.03
2022-11-17T15:26:25.516Z,92.41
2022-11-17T15:28:53.867Z,91.94
2022-11-17T15:31:23.454Z,91.72
2022-11-17T15:33:51.802Z,92.23
2022-11-17T15:36:23.123Z,91.77
2022-11-17T15:38:53.291Z,91.50
2022-11-17T15:41:22.031Z,91.59
2022-11-17T15:43:50.321Z,90.97
2022-11-17T15:46:20.344Z,91.16
2022-11-17T15:48:52.505Z,91.20
2022-11-17T15:51:23.435Z,90.64
2022-11-17T15:53:54.096Z,90.55
2022-11-17T15:56:25.837Z,90.52
2022-11-17T15:58:58.005Z,90.35
2022-11-17T16:01:32.025Z,90.23
2022-11-17T16:04:03.904Z,89.99
2022-11-17T16:06:33.874Z,90.04
2022-11-17T16:09:02.356Z,90.13
2022-11-17T16:11:31.065Z,89.89
2022-11-17T16:14:00.738Z,90.13
2022-11-17T16:16:31.089Z,89.65
2022-11-17T16:19:01.052Z,90.14
2022-11-17T16:21:29.669Z,90.31
2022-11-17T16:24:00.901Z,89.66
2022-11-17T16:26:30.691Z,89.44
2022-11-17T16:29:00.683Z,89.69
2022-11-17T16:31:32.289Z,89.99
2022-11-17T16:34:05.166Z,89.68
2022-11-17T16:36:37.090Z,89.62
2022-11-17T16:39:07.818Z,89.72
2022-11-17T16:41:38.811Z,89.63
2022-11-17T16:44:11.789Z,89.36
2022-11-17T16:46:43.064Z,89.17
2022-11-17T16:49:15.983Z,89.53
2022-11-17T16:51:49.018Z,89.19
2022-11-17T16:54:18.136Z,89.70
2022-11-17T16:56:46.880Z,89.63
2022-11-17T16:59:16.060Z,88.81
2022-11-17T17:01:44.928Z,88.79
2022-11-17T17:04:14.493Z,89.14
2022-11-17T17:06:45.109Z,89.18
2022-11-17T17:09:15.770Z,89.40
2022-11-17T17:11:44.368Z,89.33
2022-11-17T17:14:15.259Z,89.56
2022-11-17T17:16:44.134Z,89.80
2022-11-17T17:19:16.353Z,89.40
2022-11-17T17:21:45.644Z,89.70
2022-11-17T17:24:14.184Z,89.74
2022-11-17T17:26:42.878Z,88.88
2022-11-17T17:29:12.280Z,88.94
2022-11-17T17:31:43.164Z,89.09
2022-11-17T17:34:14.691Z,89.47
2022-11-17T17:36:42.989Z,89.47
2022-11-17T17:39:15.322Z,89.52
2022-11-17T17:41:44.522Z,89.55
2022-11-17T17:44:16.898Z,89.75
2022-11-17T17:46:46.046Z,89.51
2022-11-17T17:49:16.045Z,89.34
2022-11-17T17:51:45.256Z,89.96
2022-11-17T17:54:17.857Z,90.24
2022-11-17T17:56:46.932Z,90.21
2022-11-17T17:59:15.956Z,90.12
2022-11-17T18:01:46.180Z,90.20
2022-11-17T18:04:17.002Z,90.19
2022-11-17T18:06:48.046Z,89.88
2022-11-17T18:09:19.386Z,89.43
2022-11-17T18:11:50.023Z,89.36
2022-11-17T18:14:23.939Z,89.40
2022-11-17T18:16:53.074Z,89.41
2022-11-17T18:19:25.776Z,89.54
2022-11-17T18:21:56.794Z,89.41
2022-11-17T18:24:25.261Z,89.36
2022-11-17T18:26:53.540Z,89.19
2022-11-17T18:29:21.925Z,89.24
2022-11-17T18:31:50.640Z,89.15
2022-11-17T18:34:23.084Z,89.25
2022-11-17T18:36:52.603Z,89.32
2022-11-17T18:39:21.285Z,89.05
2022-11-17T18:41:49.783Z,88.92
2022-11-17T18:44:19.648Z,88.78
2022-11-17T18:46:48.328Z,89.02
2022-11-17T18:49:17.023Z,88.83
2022-11-17T18:51:46.931Z,89.22
2022-11-17T18:54:15.508Z,89.40
2022-11-17T18:56:44.573Z,89.57
2022-11-17T18:59:13.283Z,89.40
2022-11-17T19:01:43.508Z,89.53
2022-11-17T19:04:14.684Z,89.66
2022-11-17T19:06:43.221Z,89.69
2022-11-17T19:09:14.056Z,89.80
2022-11-17T19:11:42.984Z,90.20
2022-11-17T19:14:11.427Z,90.09
2022-11-17T19:16:44.483Z,89.91
2022-11-17T19:19:15.206Z,89.94
2022-11-17T19:21:44.212Z,90.03
2022-11-17T19:24:15.274Z,89.46
2022-11-17T19:26:43.772Z,89.47
2022-11-17T19:29:17.295Z,88.82
2022-11-17T19:31:46.740Z,89.08
2022-11-17T19:34:15.582Z,89.02
2022-11-17T19:36:45.267Z,88.85
2022-11-17T19:39:17.064Z,88.93
2022-11-17T19:41:47.579Z,88.72
2022-11-17T19:44:16.064Z,88.32
2022-11-17T19:46:44.481Z,88.51
2022-11-17T19:49:14.012Z,88.46
2022-11-17T19:51:42.822Z,88.73
2022-11-17T19:54:14.724Z,89.07
2022-11-17T19:56:43.056Z,89.21
2022-11-17T19:59:15.980Z,89.08
2022-11-17T20:01:45.426Z,89.26
2022-11-17T20:04:13.902Z,89.19
2022-11-17T20:06:42.257Z,89.10
2022-11-17T20:09:14.530Z,89.01
2022-11-17T20:11:43.724Z,89.20
2022-11-17T20:14:12.150Z,89.27
2022-11-17T20:16:40.567Z,89.82
2022-11-17T20:19:14.256Z,89.69
2022-11-17T20:21:42.792Z,89.62
2022-11-17T20:24:11.437Z,89.83
2022-11-17T20:26:43.080Z,90.00
2022-11-17T20:29:11.435Z,89.77
2022-11-17T20:31:39.745Z,89.75
2022-11-17T20:34:08.115Z,89.90
2022-11-17T20:36:36.389Z,89.77
2022-11-17T20:39:07.069Z,89.45
2022-11-17T20:41:35.712Z,89.56
2022-11-17T20:44:23.593Z,89.93
2022-11-17T20:46:53.007Z,89.75
2022-11-17T20:49:21.266Z,89.56
2022-11-17T20:51:49.735Z,89.49
2022-11-17T20:54:18.024Z,89.68
2022-11-17T20:56:46.254Z,89.57
2022-11-17T20:59:20.017Z,89.08
2022-11-17T21:01:50.237Z,89.32
2022-11-17T21:04:18.649Z,89.58
2022-11-17T21:06:47.098Z,89.91
2022-11-17T21:09:15.621Z,89.73
2022-11-17T21:11:59.192Z,89.78
2022-11-17T21:14:30.660Z,89.77
2022-11-17T21:17:00.482Z,90.36
2022-11-17T21:19:29.296Z,90.32
2022-11-17T21:21:57.713Z,90.62
2022-11-17T21:24:27.750Z,90.54
2022-11-17T21:26:56.985Z,90.91
2022-11-17T21:29:25.236Z,90.93
2022-11-17T21:31:54.897Z,91.11
2022-11-17T21:34:23.327Z,91.00
2022-11-17T21:36:51.615Z,91.24
2022-11-17T21:39:19.867Z,91.07
2022-11-17T21:41:48.299Z,91.52
2022-11-17T21:44:16.848Z,91.52
2022-11-17T21:46:45.091Z,91.46
2022-11-17T21:49:14.893Z,91.41
2022-11-17T21:51:43.360Z,91.21
2022-11-17T21:54:11.664Z,91.30
2022-11-17T21:56:40.785Z,91.56
2022-11-17T21:59:14.201Z,92.01
2022-11-17T22:01:42.699Z,91.96
2022-11-17T22:04:15.677Z,91.80
2022-11-17T22:06:44.053Z,91.78
2022-11-17T22:09:12.347Z,91.92
2022-11-17T22:11:40.849Z,91.79
2022-11-17T22:14:12.687Z,92.46
2022-11-17T22:16:43.322Z,92.27
2022-11-17T22:19:14.609Z,92.69
2022-11-17T22:21:43.950Z,92.47
2022-11-17T22:24:13.487Z,92.43
2022-11-17T22:26:43.717Z,92.81
2022-11-17T22:29:15.345Z,92.91
2022-11-17T22:31:45.452Z,93.15
2022-11-17T22:34:16.473Z,92.92
2022-11-17T22:36:44.793Z,92.69
2022-11-17T22:39:13.279Z,92.53
2022-11-17T22:41:41.841Z,92.97
2022-11-17T22:44:14.544Z,92.87
2022-11-17T22:46:43.586Z,93.02
2022-11-17T22:49:12.207Z,93.25
2022-11-17T22:51:59.472Z,93.55
2022-11-17T22:54:28.256Z,94.00
2022-11-17T22:56:56.629Z,94.12
2022-11-17T22:59:25.007Z,94.01
2022-11-17T23:01:53.267Z,93.97
2022-11-17T23:04:23.016Z,93.94
2022-11-17T23:06:53.115Z,93.64
2022-11-17T23:09:21.525Z,94.29
2022-11-17T23:11:50.361Z,94.33
2022-11-17T23:14:18.705Z,94.78
2022-11-17T23:16:46.892Z,95.17
2022-11-17T23:19:16.271Z,95.41
2022-11-17T23:21:44.722Z,95.46
2022-11-17T23:24:14.796Z,95.87
2022-11-17T23:26:43.880Z,95.65
2022-11-17T23:29:12.148Z,95.57
2022-11-17T23:31:40.512Z,95.22
2022-11-17T23:34:10.577Z,95.48
2022-11-17T23:36:38.980Z,94.84
2022-11-17T23:39:07.183Z,95.16
2022-11-17T23:41:36.879Z,94.91
2022-11-17T23:44:05.641Z,95.68
2022-11-17T23:46:33.925Z,95.80
2022-11-17T23:49:02.477Z,95.55
2022-11-17T23:51:31.072Z,95.74
2022-11-17T23:54:00.805Z,95.81
2022-11-17T23:56:33.625Z,95.72
2022-11-17T23:59:03.617Z,95.39
